Provo Municipal Airport
KPVU : now visible

Airfield :











YOU CAN JOIN US ON...

 
LOGIN :

Register | Disclaimer

   EN    FR    IT 

 









Legend :    VFR   Marginal VFR   IFR   Intensive IFR   Very Intensive IFR
Visi :
Ceiling :
>= 8 km
>= 3000ft
5 to 8 km
1000 to 3000 ft
1500m to 5 km
500 to 1000 ft
800 to 1500m
200 to 500 ft
< 800m
< 200 ft
Symbols :   Thunderstorms  Fog  Heavy snow  Heavy precipitations  Wind > 20 kt






- Airport Elevation : 4497 ft


KPVU - Provo Municipal

CURRENT METAR :
  • 280156Z 33012KT 10SM FEW140 SCT210 26/09 A3008 RMK AO2 SLP138 T02560089

EXPIRED METARs :
  • 280056Z 33015KT 10SM FEW140 SCT210 27/09 A3007 RMK AO2 SLP135 T02670094
  • 272356Z 33011KT 10SM FEW110 BKN210 28/09 A3007 RMK AO2 SLP132 T02830089 10289 20222 56008

TAF KPVU
Valid from the 28 at 00:00 until the 29 at 00:00 UTC


272338Z 2800/2824 32010KT P6SM FEW100 SCT200
FM280500 VRB04KT P6SM SKC
FM281900 28006KT P6SM FEW150
KZLC FIR / North America



MET'MAP, your aeronautical weather chart ! - Copyright ORBIFLY December 2007 - Disclaimer

ORBIFLY MET'MAP TEAM :

Programming & Development : Alexandra Zaïnal
Concept & original design : Baudouin d'Aumeries
Assistance for programming : Marc-Olivier Méhu
Technical & hardware support : Manuel Goepfert

Contact : metmap@orbifly.com




SOURCES & CREDITS :

   NOAA       Earth
Advisory